Time;durP1;ratioP1;P1;durP2;ratioP2;P2;SDS_P1;SDS_P2;PMS_P1;PMS_P2;Temp;Humidity;BMP_temperature;BMP_pressure;BME280_temperature;BME280_humidity;BME280_pressure;Samples;Min_cycle;Max_cycle;Signal;HPM_P1;HPM_P2
2022/06/30 00:01:46;;;;;;;13.98;13.15;;;;;;;19.26;100.00;99702.09;10375149;28;20113;-75
2022/06/30 00:06:48;;;;;;;14.63;13.82;;;;;;;19.24;100.00;99693.34;10373120;28;20458;-75
2022/06/30 00:11:50;;;;;;;13.38;12.48;;;;;;;19.41;100.00;99683.13;10377676;28;20496;-75
2022/06/30 00:16:51;;;;;;;12.52;11.82;;;;;;;19.56;100.00;99681.13;10373947;28;20034;-75
2022/06/30 00:21:54;;;;;;;13.45;12.50;;;;;;;19.50;100.00;99680.75;10373752;28;20056;-75
2022/06/30 00:26:55;;;;;;;13.27;12.45;;;;;;;19.23;100.00;99686.31;10356405;28;20041;-75
2022/06/30 00:31:57;;;;;;;14.07;13.02;;;;;;;19.09;100.00;99687.31;10375684;28;20041;-75
2022/06/30 00:36:59;;;;;;;13.50;12.40;;;;;;;19.06;100.00;99690.19;10372783;28;20129;-75
2022/06/30 00:42:01;;;;;;;13.10;12.13;;;;;;;19.05;100.00;99684.03;10372953;28;20399;-75
2022/06/30 00:47:05;;;;;;;15.50;14.05;;;;;;;18.95;100.00;99680.31;10373537;28;20042;-75
2022/06/30 00:52:09;;;;;;;17.23;15.63;;;;;;;18.86;100.00;99683.66;10375138;28;20050;-75
2022/06/30 00:57:12;;;;;;;14.50;13.50;;;;;;;19.02;100.00;99684.22;10376748;28;20037;-75
2022/06/30 01:02:15;;;;;;;15.35;14.25;;;;;;;19.03;100.00;99679.75;10380338;28;20056;-75
2022/06/30 01:07:19;;;;;;;16.13;14.93;;;;;;;19.01;100.00;99677.22;10380458;28;20056;-75
2022/06/30 01:17:42;;;;;;;15.70;14.52;;;;;;;18.76;100.00;99674.59;10383376;28;20157;-75
2022/06/30 01:22:44;;;;;;;15.35;14.10;;;;;;;18.61;100.00;99668.53;10379520;28;20049;-75
2022/06/30 01:27:45;;;;;;;13.10;12.30;;;;;;;18.72;100.00;99659.81;10380036;28;20041;-75
2022/06/30 01:32:47;;;;;;;13.73;12.75;;;;;;;18.65;100.00;99665.53;10379213;28;20061;-75
2022/06/30 01:37:57;;;;;;;13.02;12.05;;;;;;;18.51;100.00;99663.00;10382260;28;20046;-75
2022/06/30 01:43:00;;;;;;;13.32;12.20;;;;;;;18.44;100.00;99672.38;10377369;28;20056;-75
2022/06/30 01:48:02;;;;;;;11.07;10.10;;;;;;;18.81;100.00;99670.63;10378605;28;20052;-75
2022/06/30 01:53:04;;;;;;;11.93;10.27;;;;;;;18.83;100.00;99666.06;10379146;28;20132;-75
2022/06/30 01:58:05;;;;;;;11.13;10.45;;;;;;;18.76;100.00;99662.13;10381501;28;20042;-75
2022/06/30 02:03:07;;;;;;;11.38;10.65;;;;;;;18.79;100.00;99667.25;10381028;28;20124;-75
2022/06/30 02:08:10;;;;;;;11.88;11.07;;;;;;;18.99;100.00;99662.28;10378649;28;20563;-75
2022/06/30 02:13:11;;;;;;;12.02;11.10;;;;;;;18.81;100.00;99665.31;10378595;28;20037;-75
2022/06/30 02:18:13;;;;;;;11.70;11.00;;;;;;;18.56;100.00;99660.88;10378392;28;20140;-75
2022/06/30 02:23:14;;;;;;;11.73;11.02;;;;;;;18.58;100.00;99650.09;10377834;28;20057;-75
2022/06/30 02:28:16;;;;;;;13.75;12.70;;;;;;;18.58;100.00;99644.78;10377557;28;20492;-75
2022/06/30 02:33:18;;;;;;;13.38;12.32;;;;;;;18.55;100.00;99643.22;10375399;28;20103;-75
2022/06/30 02:38:20;;;;;;;13.07;12.27;;;;;;;18.45;100.00;99636.81;10377622;28;20042;-75
2022/06/30 02:43:22;;;;;;;12.15;11.25;;;;;;;18.55;100.00;99631.69;10378881;28;20083;-74
2022/06/30 02:48:23;;;;;;;10.75;10.02;;;;;;;18.72;100.00;99635.84;10376841;28;20078;-74
2022/06/30 02:53:25;;;;;;;11.93;11.15;;;;;;;18.59;100.00;99643.81;10376049;28;20050;-75
2022/06/30 02:58:26;;;;;;;14.18;10.80;;;;;;;18.60;100.00;99650.88;10376069;28;20091;-75
2022/06/30 03:03:28;;;;;;;11.80;10.70;;;;;;;18.66;100.00;99661.91;10378388;28;20054;-75
2022/06/30 03:08:30;;;;;;;10.52;9.77;;;;;;;18.58;100.00;99668.75;10374363;28;20414;-75
2022/06/30 03:13:32;;;;;;;11.43;10.52;;;;;;;18.51;100.00;99673.66;10375421;28;20462;-75
2022/06/30 03:18:33;;;;;;;9.95;9.05;;;;;;;18.36;100.00;99680.03;10373567;28;20057;-75
2022/06/30 03:23:35;;;;;;;8.80;8.05;;;;;;;18.43;100.00;99673.34;10374517;28;20061;-75
2022/06/30 03:28:37;;;;;;;8.95;8.45;;;;;;;18.42;100.00;99674.31;10376521;28;20042;-75
2022/06/30 03:33:38;;;;;;;9.68;9.02;;;;;;;18.65;100.00;99680.66;10375219;28;20101;-75
2022/06/30 03:38:40;;;;;;;8.77;8.07;;;;;;;18.63;100.00;99675.44;10375342;28;20042;-74
2022/06/30 03:43:42;;;;;;;9.20;8.48;;;;;;;18.98;100.00;99687.22;10375004;28;20125;-74
2022/06/30 03:48:44;;;;;;;9.68;8.98;;;;;;;19.00;100.00;99693.31;10374957;28;20056;-75
2022/06/30 03:53:45;;;;;;;10.05;9.13;;;;;;;19.00;100.00;99696.81;10374839;28;20046;-74
2022/06/30 03:58:47;;;;;;;10.77;10.07;;;;;;;18.98;100.00;99695.22;10375281;28;20053;-75
2022/06/30 04:03:49;;;;;;;28.42;22.98;;;;;;;19.09;100.00;99700.63;10375383;28;20108;-75
2022/06/30 04:08:50;;;;;;;35.50;23.05;;;;;;;19.04;100.00;99705.44;10374819;28;20053;-75
2022/06/30 04:13:52;;;;;;;64.75;30.92;;;;;;;18.94;100.00;99701.72;10375324;28;20041;-74
2022/06/30 04:18:54;;;;;;;56.15;28.98;;;;;;;18.93;100.00;99694.72;10375192;28;20411;-74
2022/06/30 04:23:56;;;;;;;55.70;30.08;;;;;;;19.08;100.00;99694.47;10375473;28;20046;-74
2022/06/30 04:28:57;;;;;;;82.80;35.85;;;;;;;19.19;100.00;99683.00;10374343;28;20491;-74
2022/06/30 04:33:59;;;;;;;78.93;37.45;;;;;;;19.25;100.00;99681.72;10382506;28;20125;-74
2022/06/30 04:39:01;;;;;;;86.32;38.83;;;;;;;19.21;100.00;99669.56;10383144;28;20042;-74
2022/06/30 04:44:03;;;;;;;77.00;37.22;;;;;;;19.41;100.00;99664.47;10383305;28;20069;-74
2022/06/30 04:49:04;;;;;;;75.68;38.38;;;;;;;19.38;100.00;99650.53;10384047;28;20407;-74
2022/06/30 04:54:06;;;;;;;71.60;38.15;;;;;;;19.34;100.00;99652.56;10385775;28;20045;-74
2022/06/30 04:59:07;;;;;;;54.20;33.00;;;;;;;19.49;100.00;99655.91;10365183;28;20057;-74
2022/06/30 05:04:09;;;;;;;69.05;37.03;;;;;;;19.70;100.00;99669.50;10382259;28;20053;-74
2022/06/30 05:09:11;;;;;;;68.80;38.58;;;;;;;19.73;100.00;99674.59;10382437;28;20555;-75
2022/06/30 05:14:13;;;;;;;49.00;31.67;;;;;;;19.86;100.00;99669.16;10383899;28;20069;-75
2022/06/30 05:19:14;;;;;;;40.83;29.60;;;;;;;19.85;100.00;99678.16;10396364;22;20064;-71
2022/06/30 05:29:38;;;;;;;28.17;21.35;;;;;;;20.01;100.00;99686.69;10368531;28;20058;-72
2022/06/30 05:34:40;;;;;;;27.23;21.90;;;;;;;19.97;100.00;99682.56;10379676;28;20508;-72
2022/06/30 05:39:42;;;;;;;28.45;22.92;;;;;;;20.06;100.00;99686.34;10379059;28;20480;-72
2022/06/30 05:44:43;;;;;;;24.55;22.30;;;;;;;20.11;100.00;99671.66;10378515;28;20113;-73
2022/06/30 05:49:45;;;;;;;49.38;31.05;;;;;;;20.28;100.00;99677.53;10378983;28;20050;-72
2022/06/30 05:54:47;;;;;;;58.30;33.28;;;;;;;20.33;100.00;99686.03;10378515;28;20045;-72
2022/06/30 05:59:49;;;;;;;62.58;33.85;;;;;;;20.42;100.00;99693.31;10377932;28;20455;-72
2022/06/30 06:04:50;;;;;;;54.95;31.40;;;;;;;20.63;97.75;99686.31;10377737;28;20042;-72
2022/06/30 06:09:52;;;;;;;36.05;26.83;;;;;;;20.54;99.82;99689.72;10378997;28;20467;-72
2022/06/30 06:14:54;;;;;;;32.17;25.05;;;;;;;20.57;97.55;99702.81;10376241;28;20050;-72
2022/06/30 06:19:57;;;;;;;30.55;24.50;;;;;;;20.71;96.43;99698.22;10377287;28;20057;-71
2022/06/30 06:24:58;;;;;;;32.10;24.90;;;;;;;20.49;97.16;99699.88;10375947;28;20054;-72
2022/06/30 06:30:03;;;;;;;34.25;25.98;;;;;;;20.37;98.21;99698.16;10376708;28;20049;-72
2022/06/30 06:35:06;;;;;;;37.20;25.02;;;;;;;20.51;98.36;99695.28;10376655;28;20042;-72
2022/06/30 06:40:12;;;;;;;26.27;22.63;;;;;;;20.96;95.35;99702.47;10377439;28;20117;-71
2022/06/30 06:45:14;;;;;;;30.25;22.67;;;;;;;20.88;95.24;99695.88;10375880;28;20049;-70
2022/06/30 06:50:15;;;;;;;27.65;23.38;;;;;;;20.97;94.44;99694.31;10375930;28;20164;-70
2022/06/30 06:55:19;;;;;;;25.80;23.02;;;;;;;21.05;94.62;99686.53;10376130;28;20042;-70
2022/06/30 07:00:21;;;;;;;26.30;23.30;;;;;;;21.24;92.50;99669.84;10375516;28;20128;-70
2022/06/30 07:05:22;;;;;;;24.92;22.48;;;;;;;21.60;92.25;99668.69;10377305;28;20033;-70
2022/06/30 07:10:25;;;;;;;27.33;23.80;;;;;;;21.25;91.93;99670.69;10377599;28;20046;-70
2022/06/30 07:15:29;;;;;;;24.65;22.33;;;;;;;21.33;92.07;99685.16;10377331;28;20112;-70
2022/06/30 07:20:31;;;;;;;29.67;23.08;;;;;;;21.33;91.58;99686.97;10376362;28;20042;-70
2022/06/30 07:25:34;;;;;;;31.27;22.42;;;;;;;21.33;91.49;99681.63;10376671;28;20038;-70
2022/06/30 07:30:38;;;;;;;26.02;22.55;;;;;;;21.31;91.29;99694.25;10374697;28;20046;-70
2022/06/30 07:35:40;;;;;;;33.92;26.75;;;;;;;21.38;90.91;99699.03;10373263;28;20041;-70
2022/06/30 07:40:41;;;;;;;31.42;25.05;;;;;;;21.61;89.77;99704.28;10375631;28;20510;-70
2022/06/30 07:45:43;;;;;;;33.30;26.77;;;;;;;22.02;88.47;99708.84;10374200;28;20051;-69
2022/06/30 07:50:45;;;;;;;40.15;31.30;;;;;;;21.92;88.13;99711.47;10373619;28;20092;-70
2022/06/30 07:55:47;;;;;;;39.17;26.77;;;;;;;22.20;89.06;99709.16;10377058;28;20056;-70
2022/06/30 08:00:49;;;;;;;41.65;29.80;;;;;;;22.66;83.66;99710.53;10371058;28;20058;-69
2022/06/30 08:05:51;;;;;;;30.55;27.45;;;;;;;23.31;82.10;99709.22;10371994;28;20697;-69
2022/06/30 08:10:53;;;;;;;28.25;25.38;;;;;;;23.91;78.03;99699.31;10378377;28;20399;-69
2022/06/30 08:15:58;;;;;;;29.52;26.83;;;;;;;24.60;73.84;99706.25;10379773;28;20053;-70
2022/06/30 08:20:59;;;;;;;28.17;25.63;;;;;;;24.87;71.50;99701.91;10381935;28;20558;-70
2022/06/30 08:26:02;;;;;;;29.70;26.48;;;;;;;25.31;71.27;99702.13;10380423;28;20523;-69
2022/06/30 08:31:04;;;;;;;28.17;25.48;;;;;;;25.62;68.74;99698.09;10383345;28;20045;-70
2022/06/30 08:36:05;;;;;;;22.35;20.52;;;;;;;26.04;66.10;99684.03;10384002;28;20044;-69
2022/06/30 08:46:28;;;;;;;26.85;24.90;;;;;;;26.97;61.56;99686.13;10381320;28;20038;-70
2022/06/30 08:51:35;;;;;;;26.98;25.05;;;;;;;26.07;64.11;99677.47;10381458;28;20046;-69
2022/06/30 08:56:37;;;;;;;26.20;24.33;;;;;;;26.12;65.10;99672.47;10380626;28;20074;-69
2022/06/30 09:01:40;;;;;;;27.75;25.65;;;;;;;26.01;65.11;99681.63;10381556;28;20045;-69
2022/06/30 09:06:43;;;;;;;29.17;27.10;;;;;;;26.16;63.57;99669.31;10396005;28;20540;-68
2022/06/30 09:11:48;;;;;;;26.40;24.33;;;;;;;26.78;63.30;99668.31;10398782;28;20095;-68
2022/06/30 09:16:52;;;;;;;25.60;23.75;;;;;;;27.08;60.40;99667.75;10419510;28;20080;-68
2022/06/30 09:22:10;;;;;;;25.67;24.05;;;;;;;26.72;61.71;99667.13;10386331;28;20084;-69
2022/06/30 09:27:19;;;;;;;25.02;22.92;;;;;;;26.79;61.70;99657.41;10379776;28;20083;-69
2022/06/30 09:32:22;;;;;;;24.63;22.83;;;;;;;26.66;62.64;99652.44;10378170;28;20042;-69
2022/06/30 09:37:24;;;;;;;27.05;23.35;;;;;;;26.70;64.03;99652.97;10384346;28;20487;-69
2022/06/30 09:42:37;;;;;;;27.20;24.92;;;;;;;26.40;62.60;99657.00;10378198;28;20046;-69
2022/06/30 09:47:55;;;;;;;24.98;23.35;;;;;;;26.45;61.92;99654.69;10378441;28;20072;-69
2022/06/30 09:53:14;;;;;;;26.20;24.13;;;;;;;25.83;65.71;99659.28;10378508;28;20056;-69
2022/06/30 09:58:35;;;;;;;24.27;22.15;;;;;;;25.82;63.78;99652.22;10378226;28;20074;-69
2022/06/30 10:03:48;;;;;;;24.70;22.95;;;;;;;25.78;65.76;99648.13;10377768;28;20128;-68
2022/06/30 10:08:50;;;;;;;24.65;22.83;;;;;;;25.72;65.79;99646.00;10377762;28;20046;-69
2022/06/30 10:13:52;;;;;;;24.38;22.13;;;;;;;26.46;63.45;99648.28;10383544;28;20418;-69
2022/06/30 10:18:54;;;;;;;24.42;22.38;;;;;;;27.21;59.83;99639.50;10376937;28;20128;-69
2022/06/30 10:23:58;;;;;;;22.92;20.88;;;;;;;27.44;59.40;99635.16;10376766;28;20050;-69
2022/06/30 10:28:59;;;;;;;22.17;20.67;;;;;;;27.99;56.57;99631.84;10376908;28;20484;-70
2022/06/30 10:34:13;;;;;;;23.42;21.83;;;;;;;29.12;52.99;99637.91;10376843;28;20575;-69
2022/06/30 10:39:42;;;;;;;23.27;21.35;;;;;;;28.87;55.07;99626.38;10376564;28;20076;-69
2022/06/30 10:44:43;;;;;;;22.48;20.77;;;;;;;29.50;51.52;99602.00;10376464;28;20050;-69
2022/06/30 10:50:05;;;;;;;18.17;16.98;;;;;;;29.72;53.11;99609.28;10376120;28;20092;-69
2022/06/30 10:55:11;;;;;;;;;;;;;;;29.57;51.71;99609.25;10377398;28;20049;-69
2022/06/30 11:00:51;;;;;;;18.10;16.90;;;;;;;30.42;48.66;99599.97;10374622;28;20283;-69
2022/06/30 11:05:53;;;;;;;16.73;15.52;;;;;;;30.78;48.77;99600.06;10375615;28;20060;-69
2022/06/30 11:10:55;;;;;;;18.25;16.85;;;;;;;30.81;48.19;99602.41;10394011;28;20037;-69
2022/06/30 11:16:28;;;;;;;17.70;16.50;;;;;;;30.24;48.72;99604.91;10381369;28;20052;-69
2022/06/30 11:21:31;;;;;;;16.63;15.43;;;;;;;30.00;48.89;99604.09;10314335;28;20047;-70
2022/06/30 11:32:00;;;;;;;14.95;13.73;;;;;;;29.64;51.64;99602.06;10374315;28;20384;-70
2022/06/30 11:37:02;;;;;;;16.55;15.35;;;;;;;29.47;50.55;99594.22;10308714;28;20042;-72
2022/06/30 11:42:11;;;;;;;14.05;13.15;;;;;;;29.04;53.41;99599.25;10297859;28;20134;-72
2022/06/30 11:47:17;;;;;;;13.05;12.25;;;;;;;28.94;53.91;99583.19;10279434;28;20078;-72
2022/06/30 11:52:23;;;;;;;13.50;12.70;;;;;;;28.63;52.72;99572.38;10297316;28;20046;-72
2022/06/30 11:57:42;;;;;;;13.65;12.75;;;;;;;28.41;53.96;99579.41;10297711;28;20485;-72
2022/06/30 12:02:46;;;;;;;12.95;11.90;;;;;;;28.03;53.88;99584.56;10350074;28;20053;-72
2022/06/30 12:07:49;;;;;;;12.50;11.68;;;;;;;27.87;54.11;99579.16;10319246;28;20049;-71
2022/06/30 12:12:51;;;;;;;11.50;10.80;;;;;;;28.09;54.83;99581.16;10336645;28;20061;-71
2022/06/30 12:17:53;;;;;;;12.05;10.85;;;;;;;29.23;52.81;99590.69;10335840;28;20038;-71
2022/06/30 12:22:56;;;;;;;11.95;11.25;;;;;;;30.09;51.46;99581.31;10318639;28;20050;-71
2022/06/30 12:27:59;;;;;;;12.48;11.57;;;;;;;30.22;50.44;99591.53;10337571;28;20045;-71
2022/06/30 12:33:04;;;;;;;12.57;11.77;;;;;;;29.60;49.84;99579.06;10338709;28;20066;-74
2022/06/30 12:38:15;;;;;;;13.35;12.30;;;;;;;28.76;54.01;99598.84;10320384;28;20066;-70
2022/06/30 12:43:19;;;;;;;15.25;14.32;;;;;;;28.27;56.38;99601.72;10337124;28;20069;-71
2022/06/30 12:48:39;;;;;;;18.70;17.40;;;;;;;27.83;57.42;99575.13;10321045;28;20055;-71
2022/06/30 12:53:42;;;;;;;18.27;16.95;;;;;;;28.44;58.58;99573.66;10340056;28;20140;-70
2022/06/30 12:58:43;;;;;;;15.98;15.07;;;;;;;28.48;57.17;99569.59;10325960;28;20062;-72
2022/06/30 13:04:00;;;;;;;15.07;14.18;;;;;;;28.85;56.58;99565.34;10343451;28;20129;-71
2022/06/30 13:09:06;;;;;;;12.82;11.85;;;;;;;29.58;52.20;99574.88;10344183;28;20045;-71
2022/06/30 13:14:08;;;;;;;14.32;13.10;;;;;;;29.94;51.83;99580.47;10342621;28;20046;-72
2022/06/30 13:19:10;;;;;;;13.25;12.45;;;;;;;29.98;50.70;99570.09;10344233;28;20046;-72
2022/06/30 13:24:13;;;;;;;11.80;11.00;;;;;;;29.38;51.63;99563.66;10343613;28;20129;-71
2022/06/30 13:29:16;;;;;;;12.07;11.38;;;;;;;28.85;52.91;99568.03;10342839;28;20065;-71
2022/06/30 13:34:18;;;;;;;13.70;12.70;;;;;;;28.67;54.37;99565.59;10344929;28;20046;-71
2022/06/30 13:39:20;;;;;;;12.57;11.88;;;;;;;28.71;52.21;99572.34;10323560;28;20046;-72
2022/06/30 13:44:22;;;;;;;13.60;12.73;;;;;;;28.54;53.55;99568.03;10341745;28;20508;-71
2022/06/30 13:49:25;;;;;;;13.80;12.80;;;;;;;28.40;54.23;99564.19;10342875;28;20042;-70
2022/06/30 13:54:27;;;;;;;15.35;14.15;;;;;;;28.19;55.55;99567.44;10343131;28;20069;-70
2022/06/30 13:59:30;;;;;;;13.98;13.18;;;;;;;28.20;54.45;99557.47;10324503;28;20129;-71
2022/06/30 14:04:32;;;;;;;14.57;13.75;;;;;;;28.15;54.30;99561.53;10339260;28;20085;-70
2022/06/30 14:09:34;;;;;;;13.40;12.50;;;;;;;27.99;55.23;99556.19;10340148;28;20050;-70
2022/06/30 14:14:36;;;;;;;13.50;12.60;;;;;;;28.21;55.50;99551.91;10342565;28;20093;-70
2022/06/30 14:19:38;;;;;;;13.00;12.10;;;;;;;28.64;55.12;99556.00;10339826;28;20045;-70
2022/06/30 14:24:45;;;;;;;12.77;11.93;;;;;;;29.33;53.67;99549.81;10322810;28;20495;-71
2022/06/30 14:29:46;;;;;;;11.80;11.00;;;;;;;29.74;51.70;99549.50;10323706;28;20042;-72
2022/06/30 14:34:48;;;;;;;11.57;10.73;;;;;;;29.90;51.06;99536.63;10339141;28;20046;-71
2022/06/30 14:39:51;;;;;;;11.90;11.20;;;;;;;29.80;51.21;99538.78;10340470;28;20042;-71
2022/06/30 14:44:53;;;;;;;12.07;11.38;;;;;;;29.66;50.19;99553.09;10320590;28;20042;-71
2022/06/30 14:49:55;;;;;;;12.88;11.95;;;;;;;29.46;50.87;99535.69;10321310;28;20061;-71
2022/06/30 14:54:56;;;;;;;11.95;11.15;;;;;;;30.10;49.46;99514.38;10320971;28;20050;-71
2022/06/30 14:59:59;;;;;;;11.43;10.48;;;;;;;30.33;47.89;99508.91;10341178;28;20093;-71
2022/06/30 15:05:01;;;;;;;10.48;9.77;;;;;;;30.15;47.91;99509.28;10338410;28;20051;-71
2022/06/30 15:10:04;;;;;;;10.70;9.88;;;;;;;30.41;47.38;99511.50;10319533;28;20038;-72
2022/06/30 15:15:06;;;;;;;10.25;9.65;;;;;;;30.71;45.61;99519.56;10315391;28;20576;-72
2022/06/30 15:20:09;;;;;;;10.70;9.75;;;;;;;30.47;45.01;99509.91;10336155;28;20129;-72
2022/06/30 15:25:11;;;;;;;9.60;9.00;;;;;;;30.68;46.26;99515.38;10336283;28;20046;-72
2022/06/30 15:30:13;;;;;;;10.48;9.68;;;;;;;31.29;43.12;99499.56;10317970;28;20503;-72
2022/06/30 15:35:14;;;;;;;9.27;8.65;;;;;;;31.29;42.92;99496.84;10334925;28;20050;-72
2022/06/30 15:40:19;;;;;;;8.38;7.85;;;;;;;31.34;43.19;99488.09;10335136;28;20057;-73
2022/06/30 15:45:23;;;;;;;8.13;7.53;;;;;;;31.86;42.65;99492.28;10334808;28;20050;-72
2022/06/30 15:50:24;;;;;;;8.68;8.05;;;;;;;31.69;42.32;99483.56;10336735;28;20050;-73
2022/06/30 15:55:26;;;;;;;7.35;6.80;;;;;;;31.85;41.87;99477.84;10334016;28;20046;-74
2022/06/30 16:00:28;;;;;;;8.40;7.80;;;;;;;31.31;41.94;99483.09;10333629;28;20049;-73
2022/06/30 16:05:30;;;;;;;8.00;7.40;;;;;;;31.33;42.57;99476.41;10333797;28;20133;-73
2022/06/30 16:10:31;;;;;;;8.15;7.55;;;;;;;31.56;42.76;99464.44;10335617;28;20049;-73
2022/06/30 16:15:33;;;;;;;8.43;7.78;;;;;;;31.23;43.16;99465.00;10333669;28;20386;-73
2022/06/30 16:20:35;;;;;;;8.43;7.93;;;;;;;30.97;43.65;99451.22;10333432;28;20050;-72
2022/06/30 16:25:37;;;;;;;8.73;8.05;;;;;;;30.72;44.30;99439.88;10334684;28;20088;-73
2022/06/30 16:30:39;;;;;;;9.18;8.57;;;;;;;30.14;45.13;99432.53;10325534;28;20042;-73
2022/06/30 16:35:41;;;;;;;9.55;8.77;;;;;;;29.94;46.28;99436.00;10342143;28;20097;-73
2022/06/30 16:40:46;;;;;;;10.63;9.77;;;;;;;29.82;45.17;99441.03;10342874;28;20345;-72
2022/06/30 16:45:48;;;;;;;9.02;8.27;;;;;;;29.54;45.11;99430.84;10340847;28;20488;-72
2022/06/30 16:50:50;;;;;;;9.13;8.35;;;;;;;29.36;45.59;99428.47;10340714;28;20048;-72
2022/06/30 16:55:52;;;;;;;8.10;7.50;;;;;;;29.27;46.65;99442.28;10324587;28;20053;-72
2022/06/30 17:00:54;;;;;;;6.70;6.25;;;;;;;29.19;46.28;99440.50;10342557;28;20452;-72
2022/06/30 17:05:59;;;;;;;7.28;6.68;;;;;;;28.87;46.95;99444.28;10322690;28;20145;-72
2022/06/30 17:11:15;;;;;;;6.90;6.40;;;;;;;28.86;47.03;99439.88;10340306;28;20049;-74
2022/06/30 17:16:18;;;;;;;7.28;6.78;;;;;;;28.77;47.20;99440.97;10342038;28;20060;-73
2022/06/30 17:21:20;;;;;;;6.97;6.40;;;;;;;28.78;47.44;99440.78;10413065;22;20053;-79
2022/06/30 17:26:22;;;;;;;7.50;6.65;;;;;;;28.59;48.12;99442.09;10398461;28;20041;-80
2022/06/30 17:31:25;;;;;;;7.20;6.53;;;;;;;28.63;48.53;99456.94;10397038;28;20042;-79
2022/06/30 17:36:28;;;;;;;7.22;6.72;;;;;;;28.52;48.42;99460.06;10396652;28;20042;-78
2022/06/30 17:41:31;;;;;;;8.05;7.45;;;;;;;28.29;49.11;99451.03;10392758;28;20042;-77
2022/06/30 17:46:33;;;;;;;6.78;6.32;;;;;;;28.23;49.08;99451.75;10384490;28;20065;-78
2022/06/30 17:51:35;;;;;;;6.90;6.32;;;;;;;28.07;50.29;99463.47;10369526;28;20411;-77
2022/06/30 17:56:39;;;;;;;7.25;6.57;;;;;;;27.90;50.60;99476.19;10385017;28;20046;-77
2022/06/30 18:01:41;;;;;;;7.33;6.03;;;;;;;27.94;50.51;99471.28;10385862;28;20045;-78
2022/06/30 18:12:03;;;;;;;7.25;6.75;;;;;;;27.69;51.41;99479.41;10392321;28;20049;-79
2022/06/30 18:17:08;;;;;;;7.47;6.88;;;;;;;27.49;52.35;99480.78;10390958;28;20092;-77
2022/06/30 18:22:10;;;;;;;6.82;6.32;;;;;;;27.43;52.20;99474.22;10373907;28;20052;-79
2022/06/30 18:27:13;;;;;;;6.90;6.50;;;;;;;27.33;53.34;99482.50;10400815;28;20054;-79
2022/06/30 18:32:15;;;;;;;7.10;6.60;;;;;;;27.14;54.16;99474.78;10397627;28;20112;-79
2022/06/30 18:37:17;;;;;;;7.55;6.90;;;;;;;27.05;54.42;99470.31;10395315;28;20124;-79
2022/06/30 18:42:19;;;;;;;6.97;6.32;;;;;;;26.95;54.95;99473.19;10401748;28;20040;-78
2022/06/30 18:47:24;;;;;;;6.82;6.22;;;;;;;26.78;55.67;99472.31;10405399;28;20103;-79
2022/06/30 18:52:25;;;;;;;7.55;6.85;;;;;;;26.66;56.49;99455.66;10405508;28;20512;-78
2022/06/30 18:57:39;;;;;;;7.82;7.15;;;;;;;26.64;56.65;99462.19;10404967;28;20114;-79
2022/06/30 19:02:41;;;;;;;7.97;7.38;;;;;;;26.60;56.66;99475.16;10408982;28;20068;-79
2022/06/30 19:07:45;;;;;;;8.68;8.07;;;;;;;26.28;57.93;99469.66;10404137;28;20511;-79
2022/06/30 19:12:47;;;;;;;7.28;6.78;;;;;;;26.01;58.94;99476.97;10403819;28;20046;-79
2022/06/30 19:17:50;;;;;;;8.32;7.75;;;;;;;25.87;59.82;99482.94;10403262;28;20053;-79
2022/06/30 19:22:51;;;;;;;7.60;7.10;;;;;;;25.79;60.25;99469.44;10401864;28;20096;-78
2022/06/30 19:28:08;;;;;;;8.50;7.78;;;;;;;25.52;61.24;99482.03;10404290;28;20049;-78
2022/06/30 19:33:11;;;;;;;7.78;7.28;;;;;;;25.33;62.29;99491.16;10402703;28;20049;-78
2022/06/30 19:38:13;;;;;;;7.80;7.20;;;;;;;25.22;63.34;99509.38;10386562;28;20694;-81
2022/06/30 19:43:14;;;;;;;8.40;7.90;;;;;;;25.00;64.69;99511.50;10399890;28;20046;-81
2022/06/30 19:48:17;;;;;;;7.50;6.88;;;;;;;24.94;65.05;99506.75;10399952;28;20483;-79
2022/06/30 19:53:19;;;;;;;8.57;7.97;;;;;;;24.97;64.78;99516.31;10401501;28;20068;-80
2022/06/30 19:58:21;;;;;;;9.07;8.48;;;;;;;24.77;66.17;99519.16;10398230;28;20034;-79
2022/06/30 20:14:08;;;;;;;8.45;7.85;;;;;;;24.41;68.60;99543.28;10412111;28;20053;-80
2022/06/30 20:19:14;;;;;;;9.10;8.57;;;;;;;24.57;69.32;99544.47;10415360;28;20034;-81
2022/06/30 20:24:16;;;;;;;10.20;9.25;;;;;;;24.55;69.61;99538.41;10412654;28;20042;-79
2022/06/30 20:29:17;;;;;;;9.73;9.20;;;;;;;24.25;70.22;99545.72;10412850;28;20117;-80
2022/06/30 20:34:19;;;;;;;9.55;8.93;;;;;;;24.00;71.02;99536.53;10409765;28;20105;-80
2022/06/30 20:39:21;;;;;;;10.15;9.43;;;;;;;23.83;72.12;99532.75;10409113;28;20038;-79
2022/06/30 20:44:22;;;;;;;10.32;9.57;;;;;;;23.73;72.95;99537.31;10408305;28;20071;-79
2022/06/30 20:54:44;;;;;;;10.73;10.07;;;;;;;23.55;73.89;99531.81;10408198;28;20050;-79
2022/06/30 20:59:46;;;;;;;13.32;12.32;;;;;;;23.45;74.61;99533.63;10391903;28;20054;-79
2022/06/30 21:04:48;;;;;;;12.15;11.35;;;;;;;23.26;76.52;99528.31;10392067;28;20097;-79
2022/06/30 21:09:51;;;;;;;13.82;12.82;;;;;;;23.22;77.00;99527.72;10405951;28;20428;-79
2022/06/30 21:14:54;;;;;;;11.50;10.60;;;;;;;23.43;76.73;99524.91;10404062;28;20076;-80
2022/06/30 21:19:55;;;;;;;10.82;9.98;;;;;;;23.14;77.94;99515.03;10406406;28;20045;-80
2022/06/30 21:24:57;;;;;;;10.93;10.23;;;;;;;23.04;77.73;99503.47;10391548;28;20053;-79
2022/06/30 21:30:00;;;;;;;11.70;10.75;;;;;;;23.24;76.88;99504.31;10408664;28;20042;-79
2022/06/30 21:35:02;;;;;;;11.70;10.80;;;;;;;22.83;79.25;99492.00;10410055;28;20052;-80
2022/06/30 21:40:05;;;;;;;10.75;10.15;;;;;;;22.59;80.85;99493.25;10409829;28;20639;-80
2022/06/30 21:45:07;;;;;;;12.23;11.48;;;;;;;22.47;81.69;99499.69;10408253;28;20042;-80
2022/06/30 21:50:09;;;;;;;11.88;11.18;;;;;;;22.60;81.93;99502.97;10407858;28;20106;-79
2022/06/30 21:55:11;;;;;;;10.98;10.27;;;;;;;22.62;82.11;99498.34;10408406;28;20099;-79
2022/06/30 22:00:13;;;;;;;11.10;10.35;;;;;;;22.72;80.51;99509.06;10408938;28;20046;-80
2022/06/30 22:05:16;;;;;;;11.80;10.93;;;;;;;22.25;83.44;99518.66;10405266;28;20487;-79
2022/06/30 22:10:18;;;;;;;12.98;12.07;;;;;;;22.14;84.23;99519.63;10386746;28;20061;-79
2022/06/30 22:15:20;;;;;;;11.80;11.00;;;;;;;22.07;85.13;99513.06;10405635;28;20053;-80
2022/06/30 22:20:21;;;;;;;11.63;10.82;;;;;;;21.98;85.29;99514.72;10409374;28;20049;-79
2022/06/30 22:25:23;;;;;;;11.48;10.80;;;;;;;21.95;85.02;99506.94;10400762;28;20056;-79
2022/06/30 22:30:26;;;;;;;12.20;11.40;;;;;;;22.23;84.63;99486.69;10397124;28;20041;-79
2022/06/30 22:35:27;;;;;;;12.75;11.75;;;;;;;21.81;87.08;99480.56;10394860;28;20069;-79
2022/06/30 22:40:29;;;;;;;13.27;12.40;;;;;;;21.60;88.43;99484.13;10398352;28;20515;-79
2022/06/30 22:45:31;;;;;;;13.00;12.20;;;;;;;21.56;88.12;99493.41;10397003;28;20042;-78
2022/06/30 22:50:34;;;;;;;13.93;12.85;;;;;;;21.98;87.38;99495.16;10393654;28;20054;-79
2022/06/30 22:55:35;;;;;;;13.00;12.20;;;;;;;21.72;88.16;99500.94;10390888;28;20113;-79
2022/06/30 23:00:37;;;;;;;13.65;12.80;;;;;;;21.75;87.90;99497.16;10392005;28;20471;-79
2022/06/30 23:05:39;;;;;;;15.20;13.77;;;;;;;21.48;89.43;99511.06;10392541;28;20080;-80
2022/06/30 23:10:41;;;;;;;13.80;12.80;;;;;;;21.48;89.77;99519.94;10390910;28;20096;-79
2022/06/30 23:15:42;;;;;;;14.23;13.32;;;;;;;21.40;90.26;99514.41;10388222;28;20038;-79
2022/06/30 23:20:45;;;;;;;13.77;12.95;;;;;;;21.23;90.80;99512.28;10435043;22;20510;-73
2022/06/30 23:25:47;;;;;;;14.80;13.93;;;;;;;21.28;91.63;99512.72;10414967;28;20128;-74
2022/06/30 23:30:49;;;;;;;15.10;13.82;;;;;;;21.28;91.25;99532.28;10416054;28;20124;-73
2022/06/30 23:35:50;;;;;;;14.55;13.48;;;;;;;21.07;92.95;99518.91;10417424;28;20045;-73
2022/06/30 23:40:52;;;;;;;15.30;14.30;;;;;;;21.15;91.54;99528.94;10416920;28;20063;-73
2022/06/30 23:45:54;;;;;;;14.88;13.88;;;;;;;21.01;91.71;99535.44;10417407;28;20467;-73